Stations météo

réclame
Mon MeteoGroup
Carrion de los Condes, Espagne (8068): Température de l'air & dewpoint: 17.09.2018 02:00:00 - 23.09.2018 02:00:00 (CEST)Carrion de los Condes, Espagne (8068): Vitesse du vent & gusts: 17.09.2018 02:00:00 - 23.09.2018 02:00:00 (CEST)Carrion de los Condes, Espagne (8068): Direction du vent: 17.09.2018 02:00:00 - 23.09.2018 02:00:00 (CEST)Carrion de los Condes, Espagne (8068): visibility: 17.09.2018 02:00:00 - 23.09.2018 02:00:00 (CEST)Carrion de los Condes, Espagne (8068): Ensoleillement: 17.09.2018 02:00:00 - 23.09.2018 02:00:00 (CEST)Carrion de los Condes, Espagne (8068): Quantités de précipitations: 17.09.2018 02:00:00 - 23.09.2018 02:00:00 (CEST)
Date & Time tt [°C] td [°C] ff [km/h] ff [knt] fx [km/h] fx [knt] dd vv [km] sd [min] rr [mm]
23.09.2018 02:00:00 17,0 13,2 5 3 12 7 NE 20 0 -
23.09.2018 01:00:00 18,0 13,1 6 3 22 12 NE 20 0 0,0
23.09.2018 00:00:00 19,0 13,2 9 5 19 11 NNE 20 0 0,0
22.09.2018 23:00:00 18,3 11,8 9 5 18 10 NNE 20 0 0,0
22.09.2018 22:00:00 15,9 11,9 2 1 4 2 N 20 0 0,0
22.09.2018 21:00:00 18,1 13,0 0 0 1 1 N 20 0 0,0
22.09.2018 20:00:00 21,0 14,1 0 0 3 2 N 20 0 -
22.09.2018 19:00:00 24,1 9,7 1 1 9 5 NNE 20 17 0,0
22.09.2018 18:00:00 28,7 9,9 2 1 16 8 SW 20 60 0,0
22.09.2018 17:00:00 29,4 7,8 4 2 21 11 WSW 20 60 0,0
22.09.2018 16:00:00 29,0 7,6 3 2 17 9 WSW 20 60 0,0
22.09.2018 15:00:00 28,3 9,0 4 2 22 12 W 20 60 0,0
22.09.2018 14:00:00 26,3 8,3 6 3 21 11 W 20 60 -
22.09.2018 13:00:00 24,9 11,8 7 4 19 10 SW 20 60 0,0
22.09.2018 12:00:00 22,3 12,0 3 1 8 5 NNW 20 60 0,0
22.09.2018 11:00:00 19,5 12,2 3 1 8 5 SSW 20 60 0,0
22.09.2018 10:00:00 15,8 13,1 3 2 6 3 SE 20 60 0,0
22.09.2018 09:00:00 11,0 10,5 0 0 3 1 N 13 3 0,0
22.09.2018 08:00:00 9,8 8,9 1 1 5 3 W 3,5 0 -
22.09.2018 07:00:00 10,9 10,2 1 1 5 3 W 4,6 0 0,0
22.09.2018 06:00:00 12,4 11,7 2 1 12 7 NNE 8 0 0,0
22.09.2018 05:00:00 12,8 12,0 5 3 12 7 NNE 11 0 0,0
22.09.2018 04:00:00 12,9 11,8 3 1 13 7 N 11 0 0,0
22.09.2018 03:00:00 13,6 12,1 6 3 15 8 NE 13 0 0,0
22.09.2018 02:00:00 13,9 11,6 6 3 14 7 NNE 19 0 -
22.09.2018 01:00:00 14,4 11,8 4 2 12 7 NE 20 0 0,0
22.09.2018 00:00:00 15,0 11,8 5 3 22 12 ENE 20 0 0,0
21.09.2018 23:00:00 16,0 12,0 10 5 21 12 NE 20 0 0,0
21.09.2018 22:00:00 17,5 12,0 9 5 20 11 NE 20 0 0,0
21.09.2018 21:00:00 - - - - - - - - - -
21.09.2018 20:00:00 18,6 10,9 0 0 4 2 N 20 0 -
21.09.2018 19:00:00 21,4 12,0 2 1 4 2 N 20 0 0,0
21.09.2018 18:00:00 23,2 10,6 2 1 10 5 NNW 20 35 0,0
21.09.2018 17:00:00 25,2 4,8 3 2 22 12 N 20 60 0,0
21.09.2018 16:00:00 25,6 7,7 7 4 21 11 SSW 20 60 0,0
21.09.2018 15:00:00 25,1 6,2 5 3 17 9 SW 20 38 0,0
21.09.2018 14:00:00 23,6 5,5 6 3 18 10 SSW 20 36 -
21.09.2018 13:00:00 23,3 5,6 5 3 14 8 SW 20 60 0,0
21.09.2018 12:00:00 20,4 9,3 3 1 8 5 NNE 20 60 0,0
21.09.2018 11:00:00 17,6 9,2 1 1 9 5 NW 20 56 0,0
21.09.2018 10:00:00 14,5 9,0 1 1 11 6 N 20 51 0,0
21.09.2018 09:00:00 10,0 9,2 2 1 5 3 ENE 20 1 0,0
21.09.2018 08:00:00 8,1 7,3 1 1 6 3 W 20 0 -
21.09.2018 07:00:00 8,3 7,4 0 0 5 3 N 20 0 0,0
21.09.2018 06:00:00 8,8 7,8 3 1 6 3 SSW 20 0 0,0
21.09.2018 05:00:00 9,3 8,3 0 0 4 2 N 20 0 0,0
21.09.2018 04:00:00 9,9 8,5 0 0 4 2 N 20 0 0,0
21.09.2018 03:00:00 10,5 8,3 0 0 3 1 N 20 0 0,0
21.09.2018 02:00:00 11,6 9,0 1 1 4 2 NNW 20 0 -
21.09.2018 01:00:00 12,4 9,0 1 1 3 2 WNW 20 0 0,0
21.09.2018 00:00:00 13,1 9,7 1 1 3 1 N 20 0 0,0
20.09.2018 23:00:00 14,3 9,0 0 0 3 1 N 20 0 0,0
20.09.2018 22:00:00 16,4 10,3 0 0 4 2 N 20 0 0,0
20.09.2018 21:00:00 18,8 10,6 1 1 8 4 NNW 20 0 0,0
20.09.2018 20:00:00 23,0 7,6 3 2 17 9 SSW 20 0 -
20.09.2018 19:00:00 26,4 5,3 6 3 25 13 SW 20 22 0,0
20.09.2018 18:00:00 28,6 7,7 8 4 35 19 SSW 20 59 0,0
20.09.2018 17:00:00 29,0 7,6 7 4 37 20 WSW 20 60 0,0
20.09.2018 16:00:00 29,1 7,7 7 4 35 19 SW 20 60 0,0
20.09.2018 15:00:00 29,0 8,7 7 4 29 16 SW 20 60 0,0
20.09.2018 14:00:00 28,1 8,4 7 4 24 13 WSW 16 60 -
20.09.2018 13:00:00 26,2 10,8 6 3 16 9 SW 20 60 0,0
20.09.2018 12:00:00 23,8 12,7 4 2 10 5 S 20 60 0,0
20.09.2018 11:00:00 21,0 13,5 2 1 9 5 SE 20 60 0,0
20.09.2018 10:00:00 17,4 13,6 4 2 10 6 NE 17 60 0,0
20.09.2018 09:00:00 13,0 12,5 3 1 7 4 N 14 21 0,0
20.09.2018 08:00:00 11,1 10,2 1 1 4 2 NE 4,1 0 -
20.09.2018 07:00:00 12,6 11,7 3 1 10 5 NNE 8 0 0,0
20.09.2018 06:00:00 13,4 12,4 3 2 13 7 NNE 8 0 0,0
20.09.2018 05:00:00 13,2 12,4 6 3 14 7 NE 12 0 0,0
20.09.2018 04:00:00 12,7 11,6 3 2 7 4 N 12 0 0,0
20.09.2018 03:00:00 13,4 10,5 2 1 5 3 N 14 0 0,0
20.09.2018 02:00:00 15,4 11,8 3 1 13 7 NNE 20 0 -
20.09.2018 01:00:00 16,8 11,9 6 4 21 12 NNE 20 0 0,0
20.09.2018 00:00:00 16,6 9,3 8 4 18 10 NE 20 0 0,0
19.09.2018 23:00:00 14,7 11,1 1 1 4 2 NE 20 0 0,0
19.09.2018 22:00:00 16,4 12,3 1 1 3 2 NE 20 0 0,0
19.09.2018 21:00:00 18,7 13,4 3 1 4 2 N 20 0 0,0
19.09.2018 20:00:00 21,4 13,6 0 0 6 3 N 20 0 -
19.09.2018 19:00:00 24,5 11,4 3 2 17 9 SW 20 28 0,0
19.09.2018 18:00:00 27,8 10,5 3 2 18 10 WSW 20 60 0,0
19.09.2018 17:00:00 28,6 10,3 4 2 22 12 W 20 59 0,0
19.09.2018 16:00:00 28,7 8,9 5 3 17 9 WSW 20 59 0,0
19.09.2018 15:00:00 27,9 9,2 5 3 19 10 SW 20 60 0,0
19.09.2018 14:00:00 27,3 10,0 7 4 16 8 SE 20 60 -
19.09.2018 13:00:00 25,3 12,2 4 2 12 7 W 20 60 0,0
19.09.2018 12:00:00 23,4 12,6 4 2 11 6 SSE 20 60 0,0
19.09.2018 11:00:00 20,6 13,3 4 2 11 6 SSE 20 60 0,0
19.09.2018 10:00:00 17,5 14,2 4 2 11 6 ENE 17 60 0,0
19.09.2018 09:00:00 14,1 13,5 4 2 8 5 NE 6 36 0,0
19.09.2018 08:00:00 13,4 12,6 3 2 13 7 N 4,7 0 -
19.09.2018 07:00:00 13,9 13,0 4 2 14 7 NE 4,3 0 0,0
19.09.2018 06:00:00 14,0 13,4 5 3 16 9 N 8 0 0,0
19.09.2018 05:00:00 14,4 13,5 6 3 14 8 NE 6 0 0,0
19.09.2018 04:00:00 14,7 13,6 5 3 16 9 NE 9 0 0,0
19.09.2018 03:00:00 15,5 13,9 5 3 16 9 NNE 11 0 0,0
19.09.2018 02:00:00 15,5 13,2 6 3 14 8 NE 12 0 -
19.09.2018 01:00:00 15,8 13,3 6 3 13 7 NNE 12 0 0,0
19.09.2018 00:00:00 16,5 13,1 5 3 18 10 NE 20 0 0,0
18.09.2018 23:00:00 17,4 13,0 10 5 20 11 NE 20 0 0,0
18.09.2018 22:00:00 18,4 12,1 8 5 23 13 NE 20 0 0,0
18.09.2018 21:00:00 17,6 11,7 0 0 4 2 N 20 0 0,0
18.09.2018 20:00:00 20,8 12,2 0 0 10 6 N 20 0 -
18.09.2018 19:00:00 24,9 7,6 4 2 20 11 SW 20 28 0,0
18.09.2018 18:00:00 27,4 6,7 3 2 22 12 SW 20 60 0,0
18.09.2018 17:00:00 28,1 6,2 4 2 22 12 SW 20 58 0,0
18.09.2018 16:00:00 28,5 8,3 7 4 23 12 SSW 20 58 0,0
18.09.2018 15:00:00 27,9 9,7 7 4 32 18 SW 20 52 0,0
18.09.2018 14:00:00 27,1 9,9 6 3 25 14 SW 20 59 -
18.09.2018 13:00:00 26,2 11,6 4 2 13 7 SW 20 60 0,0
18.09.2018 12:00:00 24,7 12,6 4 2 13 7 S 20 60 0,0
18.09.2018 11:00:00 22,3 13,4 5 3 13 7 SSE 20 60 0,0
18.09.2018 10:00:00 19,1 12,6 3 2 10 5 ENE 20 60 0,0
18.09.2018 09:00:00 14,5 12,0 2 1 5 3 NNW 20 39 0,0
18.09.2018 08:00:00 13,8 10,8 0 0 11 6 N 20 0 -
18.09.2018 07:00:00 14,8 11,2 3 2 12 6 NE 20 0 0,0
18.09.2018 06:00:00 15,4 11,6 4 2 9 5 N 20 0 0,0
18.09.2018 05:00:00 16,4 11,8 2 1 10 5 NNE 20 0 0,0
18.09.2018 04:00:00 16,9 12,2 3 2 8 4 N 20 0 0,0
18.09.2018 03:00:00 17,3 12,2 3 1 7 4 N 20 0 0,0
18.09.2018 02:00:00 19,0 12,0 2 1 14 8 NNE 20 0 -
18.09.2018 01:00:00 20,2 11,7 7 4 23 12 SE 20 0 0,0
18.09.2018 00:00:00 20,1 10,5 5 3 19 10 E 20 0 0,0
17.09.2018 23:00:00 16,9 12,2 3 1 8 5 ENE 20 0 0,0
17.09.2018 22:00:00 18,2 12,6 1 1 6 4 N 20 0 0,0
17.09.2018 21:00:00 20,1 12,1 3 1 11 6 SSE 20 0 0,0
17.09.2018 20:00:00 - - - - - - - - - -
17.09.2018 19:00:00 24,8 13,7 2 1 12 7 N 20 21 0,0
17.09.2018 18:00:00 28,2 7,4 5 3 17 9 SW 20 39 0,0
17.09.2018 17:00:00 29,7 7,0 4 2 27 15 WSW 20 59 0,0
17.09.2018 16:00:00 28,3 8,0 4 2 22 12 SW 20 51 0,0
17.09.2018 15:00:00 29,1 8,3 4 2 25 14 WSW 20 60 0,0
17.09.2018 14:00:00 27,7 9,0 3 1 13 7 NW 20 60 -
17.09.2018 13:00:00 26,2 10,8 6 3 12 6 SE 20 60 0,0
17.09.2018 12:00:00 23,5 10,9 4 2 10 6 W 20 60 0,0
17.09.2018 11:00:00 22,0 11,7 5 3 12 6 SE 20 60 0,0
17.09.2018 10:00:00 18,9 11,9 4 2 10 5 E 20 60 0,0
17.09.2018 09:00:00 13,6 12,6 3 2 6 4 NNE 20 38 0,0
17.09.2018 08:00:00 11,4 10,4 1 1 5 3 E 16 0 -
17.09.2018 07:00:00 12,1 11,0 2 1 7 4 N 15 0 0,0
17.09.2018 06:00:00 12,0 10,9 2 1 6 4 NNE 14 0 0,0
17.09.2018 05:00:00 13,0 10,5 0 0 5 3 N 11 0 0,0
17.09.2018 04:00:00 14,0 11,7 4 2 9 5 NNE 20 0 0,0
17.09.2018 03:00:00 13,7 10,9 4 2 8 4 N 20 0 0,0
17.09.2018 02:00:00 15,3 10,9 1 1 13 7 N 20 0 -

tt = Température de l'air
td = dewpoint
ff = Vitesse du vent
fx = gusts
dd = Direction du vent
vv = visibility
sd = Ensoleillement
rr = Quantités de précipitations

stations d'obs. à proximité